sensor_id;sensor_type;location;lat;lon;timestamp;P1;durP1;ratioP1;P2;durP2;ratioP2
80647;SDS011;70012;0.000;0.000;2023-07-29T00:00:10;3.15;;;1.52;;
80647;SDS011;70012;0.000;0.000;2023-07-29T00:02:39;5.18;;;1.60;;
80647;SDS011;70012;0.000;0.000;2023-07-29T00:05:06;2.25;;;1.77;;
80647;SDS011;70012;0.000;0.000;2023-07-29T00:07:33;5.45;;;2.58;;
80647;SDS011;70012;0.000;0.000;2023-07-29T00:09:59;3.38;;;1.45;;
80647;SDS011;70012;0.000;0.000;2023-07-29T00:12:26;2.05;;;1.60;;
80647;SDS011;70012;0.000;0.000;2023-07-29T00:14:52;2.83;;;1.67;;
80647;SDS011;70012;0.000;0.000;2023-07-29T00:17:19;2.05;;;1.45;;
80647;SDS011;70012;0.000;0.000;2023-07-29T00:19:46;1.80;;;1.48;;
80647;SDS011;70012;0.000;0.000;2023-07-29T00:22:13;1.85;;;1.40;;
80647;SDS011;70012;0.000;0.000;2023-07-29T00:24:40;2.13;;;1.60;;
80647;SDS011;70012;0.000;0.000;2023-07-29T00:27:06;2.33;;;1.60;;
80647;SDS011;70012;0.000;0.000;2023-07-29T00:29:33;1.95;;;1.50;;
80647;SDS011;70012;0.000;0.000;2023-07-29T00:32:00;2.88;;;1.50;;
80647;SDS011;70012;0.000;0.000;2023-07-29T00:34:26;3.92;;;1.55;;
80647;SDS011;70012;0.000;0.000;2023-07-29T00:36:53;7.82;;;1.90;;
80647;SDS011;70012;0.000;0.000;2023-07-29T00:39:20;3.45;;;1.40;;
80647;SDS011;70012;0.000;0.000;2023-07-29T00:41:46;3.60;;;1.70;;
80647;SDS011;70012;0.000;0.000;2023-07-29T00:44:13;3.88;;;1.60;;
80647;SDS011;70012;0.000;0.000;2023-07-29T00:46:39;4.35;;;1.60;;
80647;SDS011;70012;0.000;0.000;2023-07-29T00:49:07;3.17;;;1.90;;
80647;SDS011;70012;0.000;0.000;2023-07-29T00:51:34;2.55;;;1.50;;
80647;SDS011;70012;0.000;0.000;2023-07-29T00:54:01;2.33;;;1.52;;
80647;SDS011;70012;0.000;0.000;2023-07-29T00:56:28;2.33;;;1.50;;
80647;SDS011;70012;0.000;0.000;2023-07-29T00:58:54;3.40;;;1.95;;
80647;SDS011;70012;0.000;0.000;2023-07-29T01:01:25;4.85;;;1.70;;
80647;SDS011;70012;0.000;0.000;2023-07-29T01:03:52;2.65;;;1.70;;
80647;SDS011;70012;0.000;0.000;2023-07-29T01:14:24;2.20;;;1.73;;
80647;SDS011;70012;0.000;0.000;2023-07-29T01:17:00;2.53;;;1.60;;
80647;SDS011;70012;0.000;0.000;2023-07-29T01:19:45;2.50;;;1.52;;
80647;SDS011;70012;0.000;0.000;2023-07-29T01:22:27;3.40;;;1.85;;
80647;SDS011;70012;0.000;0.000;2023-07-29T01:24:56;2.97;;;1.90;;
80647;SDS011;70012;0.000;0.000;2023-07-29T01:27:24;3.42;;;1.77;;
80647;SDS011;70012;0.000;0.000;2023-07-29T01:29:50;2.10;;;1.60;;
80647;SDS011;70012;0.000;0.000;2023-07-29T01:32:19;3.45;;;1.60;;
80647;SDS011;70012;0.000;0.000;2023-07-29T01:35:19;3.10;;;2.05;;
80647;SDS011;70012;0.000;0.000;2023-07-29T01:38:05;3.67;;;1.63;;
80647;SDS011;70012;0.000;0.000;2023-07-29T01:40:35;2.05;;;1.48;;
80647;SDS011;70012;0.000;0.000;2023-07-29T01:43:02;2.25;;;1.90;;
80647;SDS011;70012;0.000;0.000;2023-07-29T01:45:29;2.00;;;1.73;;
80647;SDS011;70012;0.000;0.000;2023-07-29T01:47:58;2.80;;;1.60;;
80647;SDS011;70012;0.000;0.000;2023-07-29T01:50:25;2.72;;;1.73;;
80647;SDS011;70012;0.000;0.000;2023-07-29T01:52:51;2.63;;;1.80;;
80647;SDS011;70012;0.000;0.000;2023-07-29T01:55:18;2.55;;;1.80;;
80647;SDS011;70012;0.000;0.000;2023-07-29T01:57:44;2.42;;;1.45;;
80647;SDS011;70012;0.000;0.000;2023-07-29T02:00:11;3.67;;;1.50;;
80647;SDS011;70012;0.000;0.000;2023-07-29T02:02:38;1.98;;;1.48;;
80647;SDS011;70012;0.000;0.000;2023-07-29T02:05:04;2.47;;;1.60;;
80647;SDS011;70012;0.000;0.000;2023-07-29T02:07:31;1.90;;;1.55;;
80647;SDS011;70012;0.000;0.000;2023-07-29T02:09:58;2.70;;;1.73;;
80647;SDS011;70012;0.000;0.000;2023-07-29T02:12:25;3.63;;;2.10;;
80647;SDS011;70012;0.000;0.000;2023-07-29T02:14:51;2.80;;;1.63;;
80647;SDS011;70012;0.000;0.000;2023-07-29T02:17:18;2.45;;;1.70;;
80647;SDS011;70012;0.000;0.000;2023-07-29T02:19:44;2.50;;;1.45;;
80647;SDS011;70012;0.000;0.000;2023-07-29T02:22:15;4.57;;;1.60;;
80647;SDS011;70012;0.000;0.000;2023-07-29T02:24:43;2.05;;;1.52;;
80647;SDS011;70012;0.000;0.000;2023-07-29T02:27:11;2.78;;;1.60;;
80647;SDS011;70012;0.000;0.000;2023-07-29T02:29:38;5.22;;;1.60;;
80647;SDS011;70012;0.000;0.000;2023-07-29T02:32:04;2.33;;;1.42;;
80647;SDS011;70012;0.000;0.000;2023-07-29T02:34:31;2.30;;;1.40;;
80647;SDS011;70012;0.000;0.000;2023-07-29T02:36:58;5.88;;;1.90;;
80647;SDS011;70012;0.000;0.000;2023-07-29T02:39:24;3.08;;;2.30;;
80647;SDS011;70012;0.000;0.000;2023-07-29T02:41:52;3.30;;;1.70;;
80647;SDS011;70012;0.000;0.000;2023-07-29T02:44:18;2.70;;;1.50;;
80647;SDS011;70012;0.000;0.000;2023-07-29T02:46:46;2.53;;;1.50;;
80647;SDS011;70012;0.000;0.000;2023-07-29T02:49:12;3.05;;;1.48;;
80647;SDS011;70012;0.000;0.000;2023-07-29T02:51:39;2.95;;;1.45;;
80647;SDS011;70012;0.000;0.000;2023-07-29T02:54:06;1.73;;;1.33;;
80647;SDS011;70012;0.000;0.000;2023-07-29T02:56:32;1.92;;;1.52;;
80647;SDS011;70012;0.000;0.000;2023-07-29T02:59:00;2.65;;;1.38;;
80647;SDS011;70012;0.000;0.000;2023-07-29T03:01:27;2.60;;;1.10;;
80647;SDS011;70012;0.000;0.000;2023-07-29T03:03:54;2.22;;;1.20;;
80647;SDS011;70012;0.000;0.000;2023-07-29T03:06:21;2.67;;;1.10;;
80647;SDS011;70012;0.000;0.000;2023-07-29T03:08:47;4.80;;;1.10;;
80647;SDS011;70012;0.000;0.000;2023-07-29T03:11:15;2.35;;;1.02;;
80647;SDS011;70012;0.000;0.000;2023-07-29T03:13:42;1.25;;;0.98;;
80647;SDS011;70012;0.000;0.000;2023-07-29T03:16:10;1.92;;;1.30;;
80647;SDS011;70012;0.000;0.000;2023-07-29T03:18:38;3.47;;;1.40;;
80647;SDS011;70012;0.000;0.000;2023-07-29T03:21:05;2.92;;;1.20;;
80647;SDS011;70012;0.000;0.000;2023-07-29T03:23:32;2.72;;;1.40;;
80647;SDS011;70012;0.000;0.000;2023-07-29T03:26:00;1.80;;;1.25;;
80647;SDS011;70012;0.000;0.000;2023-07-29T03:28:31;2.67;;;1.25;;
80647;SDS011;70012;0.000;0.000;2023-07-29T03:30:59;2.88;;;1.40;;
80647;SDS011;70012;0.000;0.000;2023-07-29T03:33:26;3.10;;;1.40;;
80647;SDS011;70012;0.000;0.000;2023-07-29T03:35:52;2.35;;;1.30;;
80647;SDS011;70012;0.000;0.000;2023-07-29T03:38:19;2.25;;;1.50;;
80647;SDS011;70012;0.000;0.000;2023-07-29T03:40:46;3.22;;;1.40;;
80647;SDS011;70012;0.000;0.000;2023-07-29T03:43:13;3.08;;;1.40;;
80647;SDS011;70012;0.000;0.000;2023-07-29T03:45:40;2.13;;;1.40;;
80647;SDS011;70012;0.000;0.000;2023-07-29T03:48:07;3.65;;;1.40;;
80647;SDS011;70012;0.000;0.000;2023-07-29T03:50:34;2.20;;;1.10;;
80647;SDS011;70012;0.000;0.000;2023-07-29T03:53:02;2.28;;;1.30;;
80647;SDS011;70012;0.000;0.000;2023-07-29T03:55:29;1.85;;;1.20;;
80647;SDS011;70012;0.000;0.000;2023-07-29T03:57:57;8.23;;;1.67;;
80647;SDS011;70012;0.000;0.000;2023-07-29T04:00:24;1.85;;;1.33;;
80647;SDS011;70012;0.000;0.000;2023-07-29T04:02:51;2.40;;;1.30;;
80647;SDS011;70012;0.000;0.000;2023-07-29T04:05:17;7.45;;;1.85;;
80647;SDS011;70012;0.000;0.000;2023-07-29T04:07:45;2.42;;;1.60;;
80647;SDS011;70012;0.000;0.000;2023-07-29T04:10:11;2.15;;;1.50;;
80647;SDS011;70012;0.000;0.000;2023-07-29T04:12:38;2.08;;;1.40;;
80647;SDS011;70012;0.000;0.000;2023-07-29T04:15:05;3.17;;;1.40;;
80647;SDS011;70012;0.000;0.000;2023-07-29T04:17:32;2.75;;;1.30;;
80647;SDS011;70012;0.000;0.000;2023-07-29T04:19:59;2.72;;;1.48;;
80647;SDS011;70012;0.000;0.000;2023-07-29T04:22:25;1.75;;;1.23;;
80647;SDS011;70012;0.000;0.000;2023-07-29T04:24:52;3.38;;;1.38;;
80647;SDS011;70012;0.000;0.000;2023-07-29T04:27:19;4.55;;;1.33;;
80647;SDS011;70012;0.000;0.000;2023-07-29T04:29:45;2.38;;;1.30;;
80647;SDS011;70012;0.000;0.000;2023-07-29T04:32:12;2.55;;;1.73;;
80647;SDS011;70012;0.000;0.000;2023-07-29T04:34:38;2.55;;;1.30;;
80647;SDS011;70012;0.000;0.000;2023-07-29T04:37:05;2.22;;;1.52;;
80647;SDS011;70012;0.000;0.000;2023-07-29T04:39:32;2.03;;;1.30;;
80647;SDS011;70012;0.000;0.000;2023-07-29T04:41:59;3.45;;;1.38;;
80647;SDS011;70012;0.000;0.000;2023-07-29T04:44:27;5.35;;;1.60;;
80647;SDS011;70012;0.000;0.000;2023-07-29T04:46:53;5.57;;;1.50;;
80647;SDS011;70012;0.000;0.000;2023-07-29T04:49:20;1.75;;;1.33;;
80647;SDS011;70012;0.000;0.000;2023-07-29T04:51:46;2.25;;;1.50;;
80647;SDS011;70012;0.000;0.000;2023-07-29T04:54:13;4.95;;;1.65;;
80647;SDS011;70012;0.000;0.000;2023-07-29T04:56:40;2.67;;;1.38;;
80647;SDS011;70012;0.000;0.000;2023-07-29T04:59:06;6.25;;;1.75;;
80647;SDS011;70012;0.000;0.000;2023-07-29T05:01:34;2.22;;;1.63;;
80647;SDS011;70012;0.000;0.000;2023-07-29T05:04:01;3.83;;;1.80;;
80647;SDS011;70012;0.000;0.000;2023-07-29T05:06:28;1.67;;;1.30;;
80647;SDS011;70012;0.000;0.000;2023-07-29T05:08:56;4.45;;;1.60;;
80647;SDS011;70012;0.000;0.000;2023-07-29T05:11:24;3.15;;;1.63;;
80647;SDS011;70012;0.000;0.000;2023-07-29T05:13:51;1.80;;;1.20;;
80647;SDS011;70012;0.000;0.000;2023-07-29T05:16:18;3.63;;;1.60;;
80647;SDS011;70012;0.000;0.000;2023-07-29T05:18:44;2.47;;;1.55;;
80647;SDS011;70012;0.000;0.000;2023-07-29T05:21:11;2.47;;;1.73;;
80647;SDS011;70012;0.000;0.000;2023-07-29T05:23:40;2.88;;;1.30;;
80647;SDS011;70012;0.000;0.000;2023-07-29T05:26:07;3.58;;;1.85;;
80647;SDS011;70012;0.000;0.000;2023-07-29T05:28:33;4.35;;;1.88;;
80647;SDS011;70012;0.000;0.000;2023-07-29T05:31:00;3.40;;;1.80;;
80647;SDS011;70012;0.000;0.000;2023-07-29T05:33:28;2.88;;;1.65;;
80647;SDS011;70012;0.000;0.000;2023-07-29T05:35:55;2.25;;;1.63;;
80647;SDS011;70012;0.000;0.000;2023-07-29T05:38:21;3.53;;;1.67;;
80647;SDS011;70012;0.000;0.000;2023-07-29T05:40:48;2.92;;;1.80;;
80647;SDS011;70012;0.000;0.000;2023-07-29T05:43:15;4.28;;;2.05;;
80647;SDS011;70012;0.000;0.000;2023-07-29T05:45:42;2.47;;;1.60;;
80647;SDS011;70012;0.000;0.000;2023-07-29T05:48:08;1.90;;;1.40;;
80647;SDS011;70012;0.000;0.000;2023-07-29T05:50:35;3.95;;;1.90;;
80647;SDS011;70012;0.000;0.000;2023-07-29T05:53:01;2.35;;;1.58;;
80647;SDS011;70012;0.000;0.000;2023-07-29T05:55:28;3.78;;;1.80;;
80647;SDS011;70012;0.000;0.000;2023-07-29T05:57:54;4.93;;;1.88;;
80647;SDS011;70012;0.000;0.000;2023-07-29T06:00:21;3.15;;;2.03;;
80647;SDS011;70012;0.000;0.000;2023-07-29T06:56:18;4.35;;;2.22;;
80647;SDS011;70012;0.000;0.000;2023-07-29T07:06:47;3.25;;;2.22;;
80647;SDS011;70012;0.000;0.000;2023-07-29T07:10:09;3.30;;;2.60;;
80647;SDS011;70012;0.000;0.000;2023-07-29T07:12:36;2.90;;;2.05;;
80647;SDS011;70012;0.000;0.000;2023-07-29T07:15:03;3.10;;;2.38;;
80647;SDS011;70012;0.000;0.000;2023-07-29T07:17:30;5.90;;;2.45;;
80647;SDS011;70012;0.000;0.000;2023-07-29T07:19:57;4.50;;;2.60;;
80647;SDS011;70012;0.000;0.000;2023-07-29T07:22:23;4.00;;;2.38;;
80647;SDS011;70012;0.000;0.000;2023-07-29T07:24:50;4.53;;;2.50;;
80647;SDS011;70012;0.000;0.000;2023-07-29T07:27:17;5.43;;;2.40;;
80647;SDS011;70012;0.000;0.000;2023-07-29T07:29:43;3.83;;;2.40;;
80647;SDS011;70012;0.000;0.000;2023-07-29T07:32:10;4.35;;;2.20;;
80647;SDS011;70012;0.000;0.000;2023-07-29T07:34:36;2.72;;;2.30;;
80647;SDS011;70012;0.000;0.000;2023-07-29T07:37:03;3.42;;;2.30;;
80647;SDS011;70012;0.000;0.000;2023-07-29T07:39:31;2.63;;;2.00;;
80647;SDS011;70012;0.000;0.000;2023-07-29T07:41:58;4.07;;;2.20;;
80647;SDS011;70012;0.000;0.000;2023-07-29T07:44:24;4.45;;;2.10;;
80647;SDS011;70012;0.000;0.000;2023-07-29T07:46:52;3.47;;;1.90;;
80647;SDS011;70012;0.000;0.000;2023-07-29T07:49:22;5.85;;;2.40;;
80647;SDS011;70012;0.000;0.000;2023-07-29T07:54:57;4.03;;;2.10;;
80647;SDS011;70012;0.000;0.000;2023-07-29T07:57:24;5.60;;;2.13;;
80647;SDS011;70012;0.000;0.000;2023-07-29T07:59:51;3.88;;;1.92;;
80647;SDS011;70012;0.000;0.000;2023-07-29T08:02:18;2.88;;;1.88;;
80647;SDS011;70012;0.000;0.000;2023-07-29T08:04:45;2.70;;;2.00;;
80647;SDS011;70012;0.000;0.000;2023-07-29T08:07:12;3.15;;;2.20;;
80647;SDS011;70012;0.000;0.000;2023-07-29T08:09:39;3.65;;;2.05;;
80647;SDS011;70012;0.000;0.000;2023-07-29T08:12:06;3.22;;;1.63;;
80647;SDS011;70012;0.000;0.000;2023-07-29T08:14:33;2.75;;;2.00;;
80647;SDS011;70012;0.000;0.000;2023-07-29T08:16:59;2.45;;;1.90;;
80647;SDS011;70012;0.000;0.000;2023-07-29T08:19:26;3.28;;;1.67;;
80647;SDS011;70012;0.000;0.000;2023-07-29T08:21:53;2.72;;;1.73;;
80647;SDS011;70012;0.000;0.000;2023-07-29T08:24:20;2.00;;;1.50;;
80647;SDS011;70012;0.000;0.000;2023-07-29T08:26:46;2.90;;;1.80;;
80647;SDS011;70012;0.000;0.000;2023-07-29T08:29:13;1.98;;;1.48;;
80647;SDS011;70012;0.000;0.000;2023-07-29T08:31:39;2.47;;;1.60;;
80647;SDS011;70012;0.000;0.000;2023-07-29T08:34:06;2.55;;;1.60;;
80647;SDS011;70012;0.000;0.000;2023-07-29T08:36:33;1.90;;;1.40;;
80647;SDS011;70012;0.000;0.000;2023-07-29T08:39:00;2.45;;;1.55;;
80647;SDS011;70012;0.000;0.000;2023-07-29T08:41:31;2.65;;;1.70;;
80647;SDS011;70012;0.000;0.000;2023-07-29T08:44:09;2.22;;;1.70;;
80647;SDS011;70012;0.000;0.000;2023-07-29T08:46:39;2.13;;;1.50;;
80647;SDS011;70012;0.000;0.000;2023-07-29T08:49:07;2.17;;;1.50;;
80647;SDS011;70012;0.000;0.000;2023-07-29T08:51:33;2.45;;;1.50;;
80647;SDS011;70012;0.000;0.000;2023-07-29T08:54:01;2.20;;;1.55;;
80647;SDS011;70012;0.000;0.000;2023-07-29T08:56:27;2.35;;;1.50;;
80647;SDS011;70012;0.000;0.000;2023-07-29T08:58:56;4.03;;;1.90;;
80647;SDS011;70012;0.000;0.000;2023-07-29T09:01:24;3.00;;;1.48;;
80647;SDS011;70012;0.000;0.000;2023-07-29T09:03:50;2.20;;;1.63;;
80647;SDS011;70012;0.000;0.000;2023-07-29T09:06:17;2.83;;;1.75;;
80647;SDS011;70012;0.000;0.000;2023-07-29T09:08:45;1.80;;;1.45;;
80647;SDS011;70012;0.000;0.000;2023-07-29T09:11:15;3.15;;;1.40;;
80647;SDS011;70012;0.000;0.000;2023-07-29T09:13:43;2.80;;;1.50;;
80647;SDS011;70012;0.000;0.000;2023-07-29T09:16:10;2.17;;;1.52;;
80647;SDS011;70012;0.000;0.000;2023-07-29T09:18:38;2.10;;;1.50;;
80647;SDS011;70012;0.000;0.000;2023-07-29T09:21:05;3.05;;;1.85;;
80647;SDS011;70012;0.000;0.000;2023-07-29T09:23:38;2.78;;;1.92;;
80647;SDS011;70012;0.000;0.000;2023-07-29T09:26:07;3.33;;;1.80;;
80647;SDS011;70012;0.000;0.000;2023-07-29T09:28:37;2.10;;;1.50;;
80647;SDS011;70012;0.000;0.000;2023-07-29T09:31:05;3.22;;;1.92;;
80647;SDS011;70012;0.000;0.000;2023-07-29T09:33:33;4.85;;;1.83;;
80647;SDS011;70012;0.000;0.000;2023-07-29T09:36:09;3.17;;;1.80;;
80647;SDS011;70012;0.000;0.000;2023-07-29T09:38:36;3.40;;;1.98;;
80647;SDS011;70012;0.000;0.000;2023-07-29T09:41:03;2.75;;;1.63;;
80647;SDS011;70012;0.000;0.000;2023-07-29T09:43:30;4.82;;;1.70;;
80647;SDS011;70012;0.000;0.000;2023-07-29T09:46:02;2.50;;;1.80;;
80647;SDS011;70012;0.000;0.000;2023-07-29T09:48:34;2.10;;;1.60;;
80647;SDS011;70012;0.000;0.000;2023-07-29T09:51:11;2.35;;;1.65;;
80647;SDS011;70012;0.000;0.000;2023-07-29T09:53:45;1.98;;;1.60;;
80647;SDS011;70012;0.000;0.000;2023-07-29T09:56:13;2.35;;;1.67;;
80647;SDS011;70012;0.000;0.000;2023-07-29T09:58:40;3.67;;;2.03;;
80647;SDS011;70012;0.000;0.000;2023-07-29T10:01:09;3.97;;;1.85;;
80647;SDS011;70012;0.000;0.000;2023-07-29T10:03:36;3.05;;;1.90;;
80647;SDS011;70012;0.000;0.000;2023-07-29T10:06:04;1.83;;;1.52;;
80647;SDS011;70012;0.000;0.000;2023-07-29T10:08:32;2.38;;;1.90;;
80647;SDS011;70012;0.000;0.000;2023-07-29T10:11:14;2.40;;;1.63;;
80647;SDS011;70012;0.000;0.000;2023-07-29T10:13:49;4.25;;;1.80;;
80647;SDS011;70012;0.000;0.000;2023-07-29T10:16:34;2.33;;;1.90;;
80647;SDS011;70012;0.000;0.000;2023-07-29T10:19:03;3.53;;;1.77;;
80647;SDS011;70012;0.000;0.000;2023-07-29T10:21:31;2.58;;;1.73;;
80647;SDS011;70012;0.000;0.000;2023-07-29T10:23:59;3.10;;;1.80;;
80647;SDS011;70012;0.000;0.000;2023-07-29T10:26:29;4.03;;;1.90;;
80647;SDS011;70012;0.000;0.000;2023-07-29T10:28:58;2.67;;;1.92;;
80647;SDS011;70012;0.000;0.000;2023-07-29T10:31:31;2.97;;;1.80;;
80647;SDS011;70012;0.000;0.000;2023-07-29T10:33:59;3.75;;;2.22;;
80647;SDS011;70012;0.000;0.000;2023-07-29T10:36:26;3.35;;;2.05;;
80647;SDS011;70012;0.000;0.000;2023-07-29T10:38:54;3.33;;;2.05;;
80647;SDS011;70012;0.000;0.000;2023-07-29T10:41:21;7.70;;;2.13;;
80647;SDS011;70012;0.000;0.000;2023-07-29T10:43:48;2.40;;;1.92;;
80647;SDS011;70012;0.000;0.000;2023-07-29T10:48:44;3.53;;;1.95;;
80647;SDS011;70012;0.000;0.000;2023-07-29T10:54:02;3.35;;;1.90;;
80647;SDS011;70012;0.000;0.000;2023-07-29T10:56:30;3.00;;;2.10;;
80647;SDS011;70012;0.000;0.000;2023-07-29T10:59:31;3.15;;;2.17;;
80647;SDS011;70012;0.000;0.000;2023-07-29T11:01:58;3.50;;;2.30;;
80647;SDS011;70012;0.000;0.000;2023-07-29T11:04:25;3.30;;;2.42;;
80647;SDS011;70012;0.000;0.000;2023-07-29T11:09:39;3.30;;;1.83;;
80647;SDS011;70012;0.000;0.000;2023-07-29T11:15:19;5.78;;;2.15;;
80647;SDS011;70012;0.000;0.000;2023-07-29T11:17:50;3.65;;;2.17;;
80647;SDS011;70012;0.000;0.000;2023-07-29T11:20:19;2.63;;;1.95;;
80647;SDS011;70012;0.000;0.000;2023-07-29T11:22:48;5.15;;;2.38;;
80647;SDS011;70012;0.000;0.000;2023-07-29T11:25:16;4.78;;;2.40;;
80647;SDS011;70012;0.000;0.000;2023-07-29T11:27:43;4.20;;;2.13;;
80647;SDS011;70012;0.000;0.000;2023-07-29T11:30:11;3.88;;;3.13;;
80647;SDS011;70012;0.000;0.000;2023-07-29T11:32:39;4.32;;;2.35;;
80647;SDS011;70012;0.000;0.000;2023-07-29T11:35:07;4.20;;;2.10;;
80647;SDS011;70012;0.000;0.000;2023-07-29T11:40:06;3.25;;;2.03;;
80647;SDS011;70012;0.000;0.000;2023-07-29T11:42:36;2.53;;;1.90;;
80647;SDS011;70012;0.000;0.000;2023-07-29T11:45:03;3.30;;;1.65;;
80647;SDS011;70012;0.000;0.000;2023-07-29T11:47:33;3.05;;;1.88;;
80647;SDS011;70012;0.000;0.000;2023-07-29T11:50:10;2.72;;;2.00;;
80647;SDS011;70012;0.000;0.000;2023-07-29T11:52:40;2.60;;;1.90;;
80647;SDS011;70012;0.000;0.000;2023-07-29T11:55:08;2.90;;;2.20;;
80647;SDS011;70012;0.000;0.000;2023-07-29T11:57:35;3.28;;;1.95;;
80647;SDS011;70012;0.000;0.000;2023-07-29T12:00:07;2.38;;;1.88;;
80647;SDS011;70012;0.000;0.000;2023-07-29T12:02:37;2.80;;;2.13;;
80647;SDS011;70012;0.000;0.000;2023-07-29T12:05:06;5.30;;;2.20;;
80647;SDS011;70012;0.000;0.000;2023-07-29T12:07:35;2.83;;;1.80;;
80647;SDS011;70012;0.000;0.000;2023-07-29T12:10:02;3.83;;;2.08;;
80647;SDS011;70012;0.000;0.000;2023-07-29T12:12:30;2.63;;;2.03;;
80647;SDS011;70012;0.000;0.000;2023-07-29T12:14:56;3.67;;;2.00;;
80647;SDS011;70012;0.000;0.000;2023-07-29T12:17:23;2.80;;;1.80;;
80647;SDS011;70012;0.000;0.000;2023-07-29T12:19:53;2.28;;;1.75;;
80647;SDS011;70012;0.000;0.000;2023-07-29T12:22:21;4.10;;;1.92;;
80647;SDS011;70012;0.000;0.000;2023-07-29T12:24:48;3.47;;;1.77;;
80647;SDS011;70012;0.000;0.000;2023-07-29T12:27:17;3.22;;;1.77;;
80647;SDS011;70012;0.000;0.000;2023-07-29T12:29:44;3.42;;;2.22;;
80647;SDS011;70012;0.000;0.000;2023-07-29T12:32:13;2.55;;;1.60;;
80647;SDS011;70012;0.000;0.000;2023-07-29T12:34:40;3.25;;;1.80;;
80647;SDS011;70012;0.000;0.000;2023-07-29T12:37:07;2.35;;;1.88;;
80647;SDS011;70012;0.000;0.000;2023-07-29T12:39:35;2.55;;;2.05;;
80647;SDS011;70012;0.000;0.000;2023-07-29T12:42:06;3.03;;;1.92;;
80647;SDS011;70012;0.000;0.000;2023-07-29T12:44:33;3.53;;;2.28;;
80647;SDS011;70012;0.000;0.000;2023-07-29T12:47:02;2.38;;;1.80;;
80647;SDS011;70012;0.000;0.000;2023-07-29T12:49:29;2.90;;;1.80;;
80647;SDS011;70012;0.000;0.000;2023-07-29T12:51:57;2.08;;;1.60;;
80647;SDS011;70012;0.000;0.000;2023-07-29T12:54:24;2.40;;;1.60;;
80647;SDS011;70012;0.000;0.000;2023-07-29T12:56:50;2.80;;;1.80;;
80647;SDS011;70012;0.000;0.000;2023-07-29T12:59:17;2.30;;;1.70;;
80647;SDS011;70012;0.000;0.000;2023-07-29T13:01:44;2.42;;;1.70;;
80647;SDS011;70012;0.000;0.000;2023-07-29T13:04:11;2.15;;;1.63;;
80647;SDS011;70012;0.000;0.000;2023-07-29T13:06:37;1.90;;;1.42;;
80647;SDS011;70012;0.000;0.000;2023-07-29T13:09:05;2.40;;;1.90;;
80647;SDS011;70012;0.000;0.000;2023-07-29T13:11:32;2.30;;;1.60;;
80647;SDS011;70012;0.000;0.000;2023-07-29T13:13:59;3.08;;;1.45;;
80647;SDS011;70012;0.000;0.000;2023-07-29T13:16:29;2.28;;;1.70;;
80647;SDS011;70012;0.000;0.000;2023-07-29T13:18:56;1.90;;;1.40;;
80647;SDS011;70012;0.000;0.000;2023-07-29T13:21:23;1.77;;;1.35;;
80647;SDS011;70012;0.000;0.000;2023-07-29T13:23:50;1.95;;;1.55;;
80647;SDS011;70012;0.000;0.000;2023-07-29T13:26:18;2.55;;;1.80;;
80647;SDS011;70012;0.000;0.000;2023-07-29T13:28:45;2.17;;;1.48;;
80647;SDS011;70012;0.000;0.000;2023-07-29T13:31:11;2.60;;;1.80;;
80647;SDS011;70012;0.000;0.000;2023-07-29T13:33:39;5.93;;;1.88;;
80647;SDS011;70012;0.000;0.000;2023-07-29T13:36:06;1.95;;;1.50;;
80647;SDS011;70012;0.000;0.000;2023-07-29T13:38:35;2.30;;;1.60;;
80647;SDS011;70012;0.000;0.000;2023-07-29T13:41:02;5.18;;;2.33;;
80647;SDS011;70012;0.000;0.000;2023-07-29T13:43:29;8.40;;;1.92;;
80647;SDS011;70012;0.000;0.000;2023-07-29T13:45:55;3.00;;;1.80;;
80647;SDS011;70012;0.000;0.000;2023-07-29T13:48:22;1.98;;;1.42;;
80647;SDS011;70012;0.000;0.000;2023-07-29T13:50:49;2.20;;;1.60;;
80647;SDS011;70012;0.000;0.000;2023-07-29T13:53:17;3.15;;;1.80;;
80647;SDS011;70012;0.000;0.000;2023-07-29T13:55:44;3.28;;;1.73;;
80647;SDS011;70012;0.000;0.000;2023-07-29T13:58:11;2.45;;;1.73;;
80647;SDS011;70012;0.000;0.000;2023-07-29T14:00:38;6.10;;;1.73;;
80647;SDS011;70012;0.000;0.000;2023-07-29T14:03:05;2.30;;;1.73;;
80647;SDS011;70012;0.000;0.000;2023-07-29T14:05:31;3.67;;;2.03;;
80647;SDS011;70012;0.000;0.000;2023-07-29T14:07:58;3.50;;;2.25;;
80647;SDS011;70012;0.000;0.000;2023-07-29T14:10:28;2.28;;;1.88;;
80647;SDS011;70012;0.000;0.000;2023-07-29T14:12:54;2.65;;;1.98;;
80647;SDS011;70012;0.000;0.000;2023-07-29T14:15:21;4.05;;;2.15;;
80647;SDS011;70012;0.000;0.000;2023-07-29T14:17:48;2.60;;;1.90;;
80647;SDS011;70012;0.000;0.000;2023-07-29T14:20:15;4.53;;;2.05;;
80647;SDS011;70012;0.000;0.000;2023-07-29T14:22:43;3.13;;;2.25;;
80647;SDS011;70012;0.000;0.000;2023-07-29T14:25:10;3.88;;;1.85;;
80647;SDS011;70012;0.000;0.000;2023-07-29T14:27:37;2.50;;;1.77;;
80647;SDS011;70012;0.000;0.000;2023-07-29T14:30:04;3.17;;;2.15;;
80647;SDS011;70012;0.000;0.000;2023-07-29T14:32:31;2.78;;;2.00;;
80647;SDS011;70012;0.000;0.000;2023-07-29T14:34:58;2.42;;;1.70;;
80647;SDS011;70012;0.000;0.000;2023-07-29T14:37:30;2.40;;;1.85;;
80647;SDS011;70012;0.000;0.000;2023-07-29T14:39:57;6.50;;;2.30;;
80647;SDS011;70012;0.000;0.000;2023-07-29T14:42:24;3.50;;;2.30;;
80647;SDS011;70012;0.000;0.000;2023-07-29T14:44:51;3.80;;;2.03;;
80647;SDS011;70012;0.000;0.000;2023-07-29T14:47:18;5.45;;;1.90;;
80647;SDS011;70012;0.000;0.000;2023-07-29T14:49:51;3.50;;;2.30;;
80647;SDS011;70012;0.000;0.000;2023-07-29T14:52:22;3.38;;;2.20;;
80647;SDS011;70012;0.000;0.000;2023-07-29T14:54:48;2.72;;;2.20;;
80647;SDS011;70012;0.000;0.000;2023-07-29T14:57:15;3.30;;;2.03;;
80647;SDS011;70012;0.000;0.000;2023-07-29T14:59:43;3.85;;;1.95;;
80647;SDS011;70012;0.000;0.000;2023-07-29T15:02:10;4.93;;;1.90;;
80647;SDS011;70012;0.000;0.000;2023-07-29T15:04:36;3.63;;;2.22;;
80647;SDS011;70012;0.000;0.000;2023-07-29T15:07:03;3.38;;;2.00;;
80647;SDS011;70012;0.000;0.000;2023-07-29T15:09:30;4.35;;;2.17;;
80647;SDS011;70012;0.000;0.000;2023-07-29T15:11:57;4.20;;;2.65;;
80647;SDS011;70012;0.000;0.000;2023-07-29T15:14:24;6.13;;;3.10;;
80647;SDS011;70012;0.000;0.000;2023-07-29T15:16:52;3.30;;;2.28;;
80647;SDS011;70012;0.000;0.000;2023-07-29T15:19:18;3.45;;;2.60;;
80647;SDS011;70012;0.000;0.000;2023-07-29T15:21:45;3.05;;;2.28;;
80647;SDS011;70012;0.000;0.000;2023-07-29T15:24:13;3.65;;;2.00;;
80647;SDS011;70012;0.000;0.000;2023-07-29T15:26:40;3.50;;;2.13;;
80647;SDS011;70012;0.000;0.000;2023-07-29T15:29:07;3.70;;;2.17;;
80647;SDS011;70012;0.000;0.000;2023-07-29T15:31:35;3.75;;;2.38;;
80647;SDS011;70012;0.000;0.000;2023-07-29T15:34:02;3.83;;;2.15;;
80647;SDS011;70012;0.000;0.000;2023-07-29T15:36:29;3.90;;;2.13;;
80647;SDS011;70012;0.000;0.000;2023-07-29T15:38:56;3.05;;;2.17;;
80647;SDS011;70012;0.000;0.000;2023-07-29T15:41:23;3.05;;;2.13;;
80647;SDS011;70012;0.000;0.000;2023-07-29T15:43:50;5.03;;;2.20;;
80647;SDS011;70012;0.000;0.000;2023-07-29T15:46:17;3.03;;;2.17;;
80647;SDS011;70012;0.000;0.000;2023-07-29T15:48:44;3.95;;;2.33;;
80647;SDS011;70012;0.000;0.000;2023-07-29T15:51:11;4.40;;;2.30;;
80647;SDS011;70012;0.000;0.000;2023-07-29T15:53:38;4.15;;;2.30;;
80647;SDS011;70012;0.000;0.000;2023-07-29T15:56:04;6.47;;;2.42;;
80647;SDS011;70012;0.000;0.000;2023-07-29T15:58:31;4.95;;;2.40;;
80647;SDS011;70012;0.000;0.000;2023-07-29T16:00:58;3.83;;;2.50;;
80647;SDS011;70012;0.000;0.000;2023-07-29T16:03:24;4.90;;;2.60;;
80647;SDS011;70012;0.000;0.000;2023-07-29T16:05:51;4.90;;;2.60;;
80647;SDS011;70012;0.000;0.000;2023-07-29T16:08:18;3.90;;;2.35;;
80647;SDS011;70012;0.000;0.000;2023-07-29T16:10:45;3.15;;;2.35;;
80647;SDS011;70012;0.000;0.000;2023-07-29T16:13:12;6.13;;;2.70;;
80647;SDS011;70012;0.000;0.000;2023-07-29T16:15:44;3.22;;;2.47;;
80647;SDS011;70012;0.000;0.000;2023-07-29T16:18:11;5.03;;;2.55;;
80647;SDS011;70012;0.000;0.000;2023-07-29T16:20:38;3.50;;;2.33;;
80647;SDS011;70012;0.000;0.000;2023-07-29T16:23:04;4.35;;;2.28;;
80647;SDS011;70012;0.000;0.000;2023-07-29T16:25:35;5.47;;;2.80;;
80647;SDS011;70012;0.000;0.000;2023-07-29T16:28:01;7.70;;;2.88;;
80647;SDS011;70012;0.000;0.000;2023-07-29T16:30:28;3.00;;;2.65;;